createdAt,value
2022-10-09T00:00:57.444Z,99.99
2022-10-09T00:01:57.826Z,99.99
2022-10-09T00:02:58.158Z,99.99
2022-10-09T00:03:58.499Z,99.99
2022-10-09T00:04:58.869Z,99.99
2022-10-09T00:05:59.187Z,99.99
2022-10-09T00:06:59.562Z,99.99
2022-10-09T00:07:59.931Z,99.99
2022-10-09T00:09:00.319Z,99.99
2022-10-09T00:10:00.654Z,99.99
2022-10-09T00:11:00.980Z,99.99
2022-10-09T00:12:01.391Z,99.99
2022-10-09T00:13:01.715Z,99.99
2022-10-09T00:14:02.109Z,99.99
2022-10-09T00:15:02.442Z,99.99
2022-10-09T00:16:02.795Z,99.99
2022-10-09T00:17:03.227Z,99.99
2022-10-09T00:18:03.503Z,99.99
2022-10-09T00:19:03.891Z,99.99
2022-10-09T00:20:04.219Z,99.99
2022-10-09T00:21:04.615Z,99.99
2022-10-09T00:22:05.018Z,99.99
2022-10-09T00:23:05.305Z,99.99
2022-10-09T00:24:05.700Z,99.99
2022-10-09T00:25:06.028Z,99.99
2022-10-09T00:26:06.378Z,99.99
2022-10-09T00:27:06.755Z,99.99
2022-10-09T00:28:07.146Z,99.99
2022-10-09T00:29:07.514Z,99.99
2022-10-09T00:30:07.850Z,99.99
2022-10-09T00:31:08.275Z,99.99
2022-10-09T00:32:08.570Z,99.99
2022-10-09T00:33:08.894Z,99.99
2022-10-09T00:34:09.274Z,99.99
2022-10-09T00:35:09.620Z,99.99
2022-10-09T00:36:09.956Z,99.99
2022-10-09T00:37:10.309Z,99.99
2022-10-09T00:38:10.677Z,99.99
2022-10-09T00:39:11.068Z,99.99
2022-10-09T00:40:11.409Z,99.99
2022-10-09T00:41:11.733Z,99.99
2022-10-09T00:42:12.093Z,99.99
2022-10-09T00:43:12.469Z,99.99
2022-10-09T00:44:12.853Z,99.99
2022-10-09T00:45:13.182Z,99.99
2022-10-09T00:46:13.561Z,99.99
2022-10-09T00:47:13.908Z,99.99
2022-10-09T00:48:14.265Z,99.99
2022-10-09T00:49:14.719Z,99.99
2022-10-09T00:50:15.010Z,99.99
2022-10-09T00:51:15.383Z,99.99
2022-10-09T00:52:15.738Z,99.99
2022-10-09T00:53:16.112Z,99.99
2022-10-09T00:54:16.493Z,99.99
2022-10-09T00:55:16.857Z,99.99
2022-10-09T00:56:17.177Z,99.99
2022-10-09T00:57:17.554Z,99.99
2022-10-09T00:58:17.906Z,99.99
2022-10-09T00:59:18.286Z,99.99
2022-10-09T01:00:18.609Z,99.99
2022-10-09T01:01:19.020Z,99.99
2022-10-09T01:02:19.375Z,99.99
2022-10-09T01:03:19.690Z,99.99
2022-10-09T01:04:20.063Z,99.99
2022-10-09T01:05:20.402Z,99.99
2022-10-09T01:06:20.715Z,99.99
2022-10-09T01:07:21.096Z,99.99
2022-10-09T01:08:21.414Z,99.99
2022-10-09T01:09:21.806Z,99.99
2022-10-09T01:10:22.147Z,99.99
2022-10-09T01:11:22.463Z,99.99
2022-10-09T01:12:22.824Z,99.99
2022-10-09T01:13:23.199Z,99.99
2022-10-09T01:14:23.538Z,99.99
2022-10-09T01:15:23.950Z,99.99
2022-10-09T01:16:24.293Z,99.99
2022-10-09T01:17:24.555Z,99.99
2022-10-09T01:18:24.907Z,99.99
2022-10-09T01:19:25.249Z,99.99
2022-10-09T01:20:25.570Z,99.99
2022-10-09T01:21:25.924Z,99.99
2022-10-09T01:22:26.294Z,99.99
2022-10-09T01:23:26.651Z,99.99
2022-10-09T01:24:27.038Z,99.99
2022-10-09T01:25:27.353Z,99.99
2022-10-09T01:26:27.724Z,99.99
2022-10-09T01:27:28.100Z,99.99
2022-10-09T01:28:28.536Z,99.99
2022-10-09T01:29:28.841Z,99.99
2022-10-09T01:30:29.165Z,99.99
2022-10-09T01:31:29.634Z,99.99
2022-10-09T01:32:29.870Z,99.99
2022-10-09T01:33:30.233Z,99.99
2022-10-09T01:34:30.624Z,99.99
2022-10-09T01:35:30.935Z,99.99
2022-10-09T01:36:31.299Z,99.99
2022-10-09T01:37:31.672Z,99.99
2022-10-09T01:38:32.043Z,99.99
2022-10-09T01:39:32.430Z,99.99
2022-10-09T01:40:32.789Z,99.99
2022-10-09T01:41:39.149Z,99.99
2022-10-09T01:42:33.521Z,99.99
2022-10-09T01:43:33.884Z,99.99
2022-10-09T01:44:36.913Z,99.99
2022-10-09T01:45:34.617Z,99.99
2022-10-09T01:46:35.034Z,99.99
2022-10-09T01:47:35.327Z,99.99
2022-10-09T01:48:35.701Z,99.99
2022-10-09T01:49:36.129Z,99.99
2022-10-09T01:50:36.375Z,99.99
2022-10-09T01:51:36.756Z,99.99
2022-10-09T01:52:40.949Z,99.99
2022-10-09T01:53:37.452Z,99.99
2022-10-09T01:54:37.783Z,99.99
2022-10-09T01:55:38.115Z,99.99
2022-10-09T01:56:38.496Z,99.99
2022-10-09T01:57:38.857Z,99.99
2022-10-09T01:58:39.170Z,99.99
2022-10-09T01:59:39.560Z,99.99
2022-10-09T02:00:39.886Z,99.99
2022-10-09T02:01:40.338Z,99.99
2022-10-09T02:02:40.611Z,99.99
2022-10-09T02:03:40.943Z,99.99
2022-10-09T02:04:41.295Z,99.99
2022-10-09T02:05:41.627Z,99.99
2022-10-09T02:06:41.961Z,99.99
2022-10-09T02:07:42.282Z,99.99
2022-10-09T02:08:42.695Z,99.99
2022-10-09T02:09:43.045Z,99.99
2022-10-09T02:10:43.373Z,99.99
2022-10-09T02:11:43.761Z,99.99
2022-10-09T02:12:44.104Z,99.99
2022-10-09T02:13:44.489Z,99.99
2022-10-09T02:14:44.829Z,99.99
2022-10-09T02:15:45.237Z,99.99
2022-10-09T02:16:45.522Z,99.99
2022-10-09T02:17:45.844Z,99.99
2022-10-09T02:18:46.226Z,99.99
2022-10-09T02:19:46.564Z,99.99
2022-10-09T02:20:46.891Z,99.99
2022-10-09T02:21:50.325Z,99.99
2022-10-09T02:22:47.992Z,99.99
2022-10-09T02:23:47.917Z,99.99
2022-10-09T02:24:48.303Z,99.99
2022-10-09T02:25:48.638Z,99.99
2022-10-09T02:26:48.969Z,99.99
2022-10-09T02:27:49.365Z,99.99
2022-10-09T02:28:49.742Z,99.99
2022-10-09T02:29:50.061Z,99.99
2022-10-09T02:30:50.415Z,99.99
2022-10-09T02:31:50.728Z,99.99
2022-10-09T02:32:51.288Z,99.99
2022-10-09T02:33:51.484Z,99.99
2022-10-09T02:34:51.825Z,99.99
2022-10-09T02:35:52.200Z,99.99
2022-10-09T02:36:52.551Z,99.99
2022-10-09T02:37:52.879Z,99.99
2022-10-09T02:38:53.236Z,99.99
2022-10-09T02:39:53.639Z,99.99
2022-10-09T02:40:53.978Z,99.99
2022-10-09T02:41:54.355Z,99.99
2022-10-09T02:42:54.761Z,99.99
2022-10-09T02:43:55.049Z,99.99
2022-10-09T02:44:55.460Z,99.99
2022-10-09T02:45:55.770Z,99.99
2022-10-09T02:46:56.109Z,99.99
2022-10-09T02:47:56.452Z,99.99
2022-10-09T02:48:56.841Z,99.99
2022-10-09T02:49:57.274Z,99.99
2022-10-09T02:50:57.493Z,99.99
2022-10-09T02:51:57.869Z,99.99
2022-10-09T02:52:58.203Z,99.99
2022-10-09T02:53:58.552Z,99.99
2022-10-09T02:54:58.974Z,99.99
2022-10-09T02:55:59.267Z,99.99
2022-10-09T02:56:59.583Z,99.99
2022-10-09T02:57:59.951Z,99.99
2022-10-09T02:59:00.323Z,99.99
2022-10-09T03:00:00.720Z,99.99
2022-10-09T03:01:01.045Z,99.99
2022-10-09T03:02:01.588Z,99.99
2022-10-09T03:03:01.791Z,99.99
2022-10-09T03:04:02.115Z,99.99
2022-10-09T03:05:02.456Z,99.99
2022-10-09T03:06:02.834Z,99.99
2022-10-09T03:07:03.163Z,99.99
2022-10-09T03:08:03.525Z,99.99
2022-10-09T03:09:03.833Z,99.99
2022-10-09T03:10:04.238Z,99.99
2022-10-09T03:11:04.563Z,99.99
2022-10-09T03:12:04.906Z,99.99
2022-10-09T03:13:05.231Z,99.99
2022-10-09T03:14:05.625Z,99.99
2022-10-09T03:15:05.993Z,99.99
2022-10-09T03:16:06.427Z,99.99
2022-10-09T03:17:06.681Z,99.99
2022-10-09T03:18:07.000Z,99.99
2022-10-09T03:19:07.384Z,99.99
2022-10-09T03:20:07.775Z,99.99
2022-10-09T03:21:08.114Z,99.99
2022-10-09T03:22:08.471Z,99.99
2022-10-09T03:23:08.824Z,99.99
2022-10-09T03:24:09.155Z,99.99
2022-10-09T03:25:09.552Z,99.99
2022-10-09T03:26:09.838Z,99.99
2022-10-09T03:27:10.200Z,99.99
2022-10-09T03:28:10.632Z,99.99
2022-10-09T03:29:10.920Z,99.99
2022-10-09T03:30:11.338Z,99.99
2022-10-09T03:31:22.590Z,99.99
2022-10-09T03:32:12.051Z,99.99
2022-10-09T03:33:12.353Z,99.99
2022-10-09T03:34:12.690Z,99.99
2022-10-09T03:35:13.071Z,99.99
2022-10-09T03:36:13.366Z,99.99
2022-10-09T03:37:13.708Z,99.99
2022-10-09T03:38:14.106Z,99.99
2022-10-09T03:39:14.443Z,99.99
2022-10-09T03:40:14.774Z,99.99
2022-10-09T03:41:15.135Z,99.99
2022-10-09T03:42:15.477Z,99.99
2022-10-09T03:43:15.816Z,99.99
2022-10-09T03:44:16.138Z,99.99
2022-10-09T03:45:16.544Z,99.99
2022-10-09T03:46:16.931Z,99.99
2022-10-09T03:47:17.233Z,99.99
2022-10-09T03:48:17.611Z,99.99
2022-10-09T03:49:18.014Z,99.99
2022-10-09T03:50:18.391Z,99.99
2022-10-09T03:51:18.692Z,99.99
2022-10-09T03:52:19.021Z,99.99
2022-10-09T03:53:19.368Z,99.99
2022-10-09T03:54:19.709Z,99.99
2022-10-09T03:55:20.100Z,99.99
2022-10-09T03:56:20.436Z,99.99
2022-10-09T03:57:20.801Z,99.99
2022-10-09T03:58:21.130Z,99.99
2022-10-09T03:59:21.513Z,99.99
2022-10-09T04:00:21.839Z,99.99
2022-10-09T04:01:22.293Z,99.99
2022-10-09T04:02:22.598Z,99.99
2022-10-09T04:03:22.911Z,99.99
2022-10-09T04:04:23.241Z,99.99
2022-10-09T04:05:23.646Z,99.99
2022-10-09T04:06:23.998Z,99.99
2022-10-09T04:07:24.336Z,99.99
2022-10-09T04:08:24.675Z,99.99
2022-10-09T04:09:25.002Z,99.99
2022-10-09T04:10:25.350Z,99.99
2022-10-09T04:11:25.669Z,99.99
2022-10-09T04:12:26.021Z,99.99
2022-10-09T04:13:26.399Z,99.99
2022-10-09T04:14:26.748Z,99.99
2022-10-09T04:15:27.092Z,99.99
2022-10-09T04:16:27.462Z,99.99
2022-10-09T04:17:27.784Z,99.99
2022-10-09T04:18:28.145Z,99.99
2022-10-09T04:19:28.468Z,99.99
2022-10-09T04:20:28.796Z,99.99
2022-10-09T04:21:29.132Z,99.99
2022-10-09T04:22:29.479Z,99.99
2022-10-09T04:23:29.843Z,99.99
2022-10-09T04:24:30.208Z,99.99
2022-10-09T04:25:30.596Z,99.99
2022-10-09T04:26:30.947Z,99.99
2022-10-09T04:27:31.308Z,99.99
2022-10-09T04:28:31.667Z,99.99
2022-10-09T04:29:31.973Z,99.99
2022-10-09T04:30:32.359Z,99.99
2022-10-09T04:31:32.745Z,99.99
2022-10-09T04:32:33.043Z,99.99
2022-10-09T04:33:33.419Z,99.99
2022-10-09T04:34:33.752Z,99.99
2022-10-09T04:35:34.144Z,99.99
2022-10-09T04:36:34.477Z,99.99
2022-10-09T04:37:34.841Z,99.99
2022-10-09T04:38:35.189Z,99.99
2022-10-09T04:39:35.519Z,99.99
2022-10-09T04:40:35.898Z,99.99
2022-10-09T04:41:38.518Z,99.99
2022-10-09T04:42:36.613Z,99.99
2022-10-09T04:43:37.000Z,99.99
2022-10-09T04:44:37.334Z,99.99
2022-10-09T04:45:37.854Z,99.99
2022-10-09T04:46:38.050Z,99.99
2022-10-09T04:47:38.405Z,99.99
2022-10-09T04:48:38.737Z,99.99
2022-10-09T04:49:39.088Z,99.99
2022-10-09T04:50:39.472Z,99.99
2022-10-09T04:51:39.793Z,99.99
2022-10-09T04:52:40.176Z,99.99
2022-10-09T04:53:40.506Z,99.99
2022-10-09T04:54:40.885Z,99.99
2022-10-09T04:55:41.262Z,99.99
2022-10-09T04:56:41.581Z,99.99
2022-10-09T04:57:41.945Z,99.99
2022-10-09T04:58:42.300Z,99.99
2022-10-09T04:59:42.691Z,99.99
2022-10-09T05:00:43.091Z,99.99
2022-10-09T05:01:43.264Z,99.99
2022-10-09T05:02:43.483Z,99.99
2022-10-09T05:03:43.756Z,99.99
2022-10-09T05:04:44.137Z,99.99
2022-10-09T05:05:44.365Z,99.99
2022-10-09T05:06:44.646Z,99.99
2022-10-09T05:07:44.955Z,99.99
2022-10-09T05:08:45.098Z,99.99
2022-10-09T05:09:45.418Z,99.99
2022-10-09T05:10:45.594Z,99.99
2022-10-09T05:11:45.838Z,99.99
2022-10-09T05:12:46.509Z,99.99
2022-10-09T05:13:46.372Z,99.99
2022-10-09T05:14:46.675Z,99.99
2022-10-09T05:15:46.959Z,99.99
2022-10-09T05:17:08.803Z,99.99
2022-10-09T05:17:47.384Z,99.99
2022-10-09T05:18:47.539Z,99.99
2022-10-09T05:19:47.831Z,99.99
2022-10-09T05:20:48.014Z,99.99
2022-10-09T05:21:48.174Z,99.99
2022-10-09T05:22:48.733Z,99.99
2022-10-09T05:23:48.641Z,99.99
2022-10-09T05:24:48.903Z,99.99
2022-10-09T05:25:49.221Z,99.99
2022-10-09T05:26:49.483Z,99.99
2022-10-09T05:27:49.783Z,99.99
2022-10-09T05:28:50.165Z,99.99
2022-10-09T05:29:50.382Z,99.99
2022-10-09T05:30:50.710Z,99.99
2022-10-09T05:31:50.863Z,99.99
2022-10-09T05:32:51.576Z,99.99
2022-10-09T05:33:51.285Z,99.99
2022-10-09T05:34:51.463Z,99.99
2022-10-09T05:35:51.646Z,99.99
2022-10-09T05:36:51.945Z,99.99
2022-10-09T05:37:52.112Z,99.99
2022-10-09T05:38:52.274Z,99.99
2022-10-09T05:39:52.591Z,99.99
2022-10-09T05:40:52.877Z,99.99
2022-10-09T05:41:53.044Z,99.99
2022-10-09T05:42:53.224Z,99.99
2022-10-09T05:43:53.399Z,99.99
2022-10-09T05:44:53.581Z,99.99
2022-10-09T05:45:53.877Z,99.99
2022-10-09T05:46:53.960Z,99.99
2022-10-09T05:47:54.123Z,99.99
2022-10-09T05:48:54.408Z,99.99
2022-10-09T05:49:54.657Z,99.99
2022-10-09T05:50:54.819Z,99.99
2022-10-09T05:51:54.969Z,99.99
2022-10-09T05:52:55.145Z,99.99
2022-10-09T05:53:55.442Z,99.99
2022-10-09T05:54:55.722Z,99.99
2022-10-09T05:55:58.514Z,99.99
2022-10-09T05:56:56.073Z,99.99
2022-10-09T05:57:56.239Z,99.99
2022-10-09T05:58:56.417Z,99.99
2022-10-09T05:59:56.602Z,99.99
2022-10-09T06:00:56.824Z,99.99
2022-10-09T06:01:56.996Z,99.99
2022-10-09T06:02:57.386Z,99.99
2022-10-09T06:03:57.440Z,99.99
2022-10-09T06:04:57.612Z,99.99
2022-10-09T06:05:57.938Z,99.99
2022-10-09T06:06:58.202Z,99.99
2022-10-09T06:07:58.366Z,99.99
2022-10-09T06:08:58.670Z,99.99
2022-10-09T06:09:58.981Z,99.99
2022-10-09T06:10:59.281Z,99.99
2022-10-09T06:11:59.337Z,99.99
2022-10-09T06:12:59.514Z,99.99
2022-10-09T06:13:59.721Z,99.99
2022-10-09T06:14:59.998Z,99.99
2022-10-09T06:16:00.327Z,99.99
2022-10-09T06:17:00.654Z,99.99
2022-10-09T06:18:00.917Z,99.99
2022-10-09T06:19:01.209Z,99.99
2022-10-09T06:20:01.507Z,99.99
2022-10-09T06:21:01.704Z,99.99
2022-10-09T06:22:01.857Z,99.99
2022-10-09T06:23:02.157Z,99.99
2022-10-09T06:24:02.463Z,99.99
2022-10-09T06:25:02.753Z,99.99
2022-10-09T06:26:03.054Z,99.99
2022-10-09T06:27:03.344Z,99.99
2022-10-09T06:28:03.611Z,99.99
2022-10-09T06:29:03.849Z,99.99
2022-10-09T06:30:04.014Z,99.99
2022-10-09T06:31:04.296Z,99.99
2022-10-09T06:32:04.358Z,99.99
2022-10-09T06:33:04.524Z,99.99
2022-10-09T06:34:04.699Z,99.99
2022-10-09T06:35:04.910Z,99.99
2022-10-09T06:36:10.044Z,99.99
2022-10-09T06:37:05.231Z,99.99
2022-10-09T06:38:05.397Z,99.99
2022-10-09T06:39:05.562Z,99.99
2022-10-09T06:40:05.738Z,99.99
2022-10-09T06:41:05.911Z,99.99
2022-10-09T06:42:06.166Z,99.99
2022-10-09T06:43:06.524Z,99.99
2022-10-09T06:44:06.432Z,99.99
2022-10-09T06:45:06.595Z,99.99
2022-10-09T06:46:06.824Z,99.99
2022-10-09T06:47:06.952Z,99.99
2022-10-09T06:48:07.247Z,99.99
2022-10-09T06:49:07.422Z,99.99
2022-10-09T06:50:07.643Z,99.99
2022-10-09T06:51:07.842Z,99.99
2022-10-09T06:52:07.996Z,99.99
2022-10-09T06:53:08.122Z,99.99
2022-10-09T06:54:08.443Z,99.99
2022-10-09T06:55:08.604Z,99.99
2022-10-09T06:56:08.790Z,99.99
2022-10-09T06:57:08.973Z,99.99
2022-10-09T06:58:09.135Z,99.99
2022-10-09T06:59:09.293Z,99.99
2022-10-09T07:00:09.488Z,99.99
2022-10-09T07:01:09.748Z,99.99
2022-10-09T07:02:10.048Z,99.99
2022-10-09T07:03:10.202Z,99.99
2022-10-09T07:04:10.304Z,99.99
2022-10-09T07:05:10.607Z,99.99
2022-10-09T07:06:10.939Z,99.99
2022-10-09T07:07:11.100Z,99.99
2022-10-09T07:08:11.270Z,99.99
2022-10-09T07:09:11.454Z,99.99
2022-10-09T07:10:11.612Z,99.99
2022-10-09T07:11:11.793Z,99.99
2022-10-09T07:12:11.947Z,99.99
2022-10-09T07:13:12.127Z,99.99
2022-10-09T07:14:12.297Z,99.99
2022-10-09T07:15:12.452Z,99.99
2022-10-09T07:16:12.848Z,99.99
2022-10-09T07:17:12.943Z,99.99
2022-10-09T07:18:13.104Z,99.99
2022-10-09T07:19:13.260Z,99.99
2022-10-09T07:20:13.455Z,99.99
2022-10-09T07:21:13.633Z,99.99
2022-10-09T07:22:13.796Z,99.99
2022-10-09T07:23:13.975Z,99.99
2022-10-09T07:24:14.163Z,99.99
2022-10-09T07:25:14.326Z,99.99
2022-10-09T07:26:14.507Z,99.99
2022-10-09T07:27:14.649Z,99.99
2022-10-09T07:28:14.903Z,99.99
2022-10-09T07:29:15.053Z,99.99
2022-10-09T07:30:15.210Z,99.99
2022-10-09T07:31:15.505Z,99.99
2022-10-09T07:32:15.552Z,99.99
2022-10-09T07:33:15.727Z,99.99
2022-10-09T07:34:15.889Z,99.99
2022-10-09T07:35:16.052Z,99.99
2022-10-09T07:36:16.374Z,99.99
2022-10-09T07:37:16.537Z,99.99
2022-10-09T07:38:16.701Z,99.99
2022-10-09T07:39:16.860Z,99.99
2022-10-09T07:40:17.063Z,99.99
2022-10-09T07:41:17.260Z,99.99
2022-10-09T07:42:23.520Z,99.99
2022-10-09T07:43:17.701Z,99.99
2022-10-09T07:44:17.856Z,99.99
2022-10-09T07:45:18.165Z,99.99
2022-10-09T07:46:18.406Z,99.99
2022-10-09T07:47:18.512Z,99.99
2022-10-09T07:48:18.678Z,99.99
2022-10-09T07:49:18.977Z,99.99
2022-10-09T07:50:19.284Z,99.99
2022-10-09T07:51:19.552Z,99.99
2022-10-09T07:52:19.616Z,99.99
2022-10-09T07:53:19.921Z,99.99
2022-10-09T07:54:20.224Z,99.99
2022-10-09T07:55:20.390Z,99.99
2022-10-09T07:56:20.575Z,99.99
2022-10-09T07:57:20.729Z,99.99
2022-10-09T07:58:20.891Z,99.99
2022-10-09T07:59:21.073Z,99.99
2022-10-09T08:00:21.242Z,99.99
2022-10-09T08:01:21.594Z,99.99
2022-10-09T08:02:21.749Z,99.95
2022-10-09T08:03:21.881Z,99.99
2022-10-09T08:04:22.087Z,99.84
2022-10-09T08:05:22.241Z,99.74
2022-10-09T08:06:22.416Z,99.69
2022-10-09T08:07:22.576Z,99.59
2022-10-09T08:08:22.734Z,99.49
2022-10-09T08:09:22.914Z,99.38
2022-10-09T08:10:23.080Z,99.34
2022-10-09T08:11:23.285Z,99.24
2022-10-09T08:12:23.423Z,99.03
2022-10-09T08:13:23.604Z,98.68
2022-10-09T08:14:23.780Z,98.47
2022-10-09T08:15:23.987Z,98.58
2022-10-09T08:16:24.194Z,97.96
2022-10-09T08:17:24.395Z,97.86
2022-10-09T08:18:24.554Z,97.81
2022-10-09T08:19:24.765Z,97.81
2022-10-09T08:20:24.951Z,97.81
2022-10-09T08:21:25.162Z,97.71
2022-10-09T08:22:25.302Z,97.56
2022-10-09T08:23:25.489Z,97.30
2022-10-09T08:24:25.678Z,97.25
2022-10-09T08:25:25.862Z,97.05
2022-10-09T08:26:26.070Z,97.25
2022-10-09T08:27:26.245Z,97.15
2022-10-09T08:28:26.520Z,96.64
2022-10-09T08:29:26.637Z,96.95
2022-10-09T08:30:26.817Z,96.80
2022-10-09T08:31:27.165Z,96.23
2022-10-09T08:32:27.210Z,96.54
2022-10-09T08:33:27.393Z,96.33
2022-10-09T08:34:27.592Z,96.23
2022-10-09T08:35:31.115Z,96.23
2022-10-09T08:36:27.987Z,96.29
2022-10-09T08:37:28.164Z,95.88
2022-10-09T08:38:46.554Z,95.98
2022-10-09T08:39:28.512Z,96.39
2022-10-09T08:40:28.708Z,96.39
2022-10-09T08:41:28.911Z,96.08
2022-10-09T08:42:29.086Z,95.67
2022-10-09T08:43:29.259Z,95.78
2022-10-09T08:44:29.439Z,95.98
2022-10-09T08:45:29.632Z,96.19
2022-10-09T08:46:29.862Z,96.14
2022-10-09T08:47:30.029Z,96.04
2022-10-09T08:48:30.219Z,95.02
2022-10-09T08:49:30.402Z,95.63
2022-10-09T08:50:30.583Z,95.53
2022-10-09T08:51:30.822Z,95.43
2022-10-09T08:52:30.973Z,95.38
2022-10-09T08:53:31.163Z,95.28
2022-10-09T08:54:31.356Z,95.07
2022-10-09T08:55:31.543Z,94.77
2022-10-09T08:56:31.750Z,94.67
2022-10-09T08:57:31.926Z,94.67
2022-10-09T08:58:32.105Z,94.82
2022-10-09T08:59:32.311Z,94.73
2022-10-09T09:00:32.528Z,94.52
2022-10-09T09:01:32.761Z,94.42
2022-10-09T09:02:32.912Z,94.01
2022-10-09T09:03:33.050Z,94.21
2022-10-09T09:04:33.245Z,94.01
2022-10-09T09:05:33.460Z,93.70
2022-10-09T09:06:33.650Z,94.21
2022-10-09T09:07:33.857Z,94.42
2022-10-09T09:08:34.018Z,94.37
2022-10-09T09:09:34.204Z,94.07
2022-10-09T09:10:34.392Z,93.86
2022-10-09T09:11:34.600Z,93.71
2022-10-09T09:12:34.766Z,93.41
2022-10-09T09:13:34.967Z,92.90
2022-10-09T09:14:35.148Z,92.80
2022-10-09T09:15:35.329Z,93.10
2022-10-09T09:16:35.525Z,93.06
2022-10-09T09:17:35.722Z,91.98
2022-10-09T09:18:39.547Z,92.29
2022-10-09T09:19:36.118Z,92.29
2022-10-09T09:20:36.314Z,92.14
2022-10-09T09:21:36.538Z,91.83
2022-10-09T09:22:36.701Z,91.74
2022-10-09T09:23:36.878Z,91.74
2022-10-09T09:24:37.082Z,91.74
2022-10-09T09:25:37.290Z,91.94
2022-10-09T09:26:37.492Z,91.63
2022-10-09T09:27:37.635Z,91.94
2022-10-09T09:28:37.875Z,91.49
2022-10-09T09:29:38.014Z,90.98
2022-10-09T09:30:38.205Z,90.98
2022-10-09T09:31:38.525Z,90.77
2022-10-09T09:32:38.593Z,91.08
2022-10-09T09:33:43.588Z,91.03
2022-10-09T09:34:38.958Z,90.94
2022-10-09T09:35:39.142Z,90.47
2022-10-09T09:36:39.339Z,90.67
2022-10-09T09:37:39.527Z,90.63
2022-10-09T09:38:54.759Z,90.94
2022-10-09T09:40:34.872Z,90.59
2022-10-09T09:40:44.378Z,89.63
2022-10-09T09:41:40.291Z,88.92
2022-10-09T09:42:40.441Z,88.51
2022-10-09T09:43:40.630Z,87.55
2022-10-09T09:44:40.824Z,87.38
2022-10-09T09:45:41.007Z,87.81
2022-10-09T09:46:41.273Z,86.19
2022-10-09T09:47:41.390Z,86.08
2022-10-09T09:48:41.583Z,86.69
2022-10-09T09:49:41.747Z,86.55
2022-10-09T09:50:50.536Z,85.74
2022-10-09T09:51:42.169Z,85.53
2022-10-09T09:52:42.282Z,85.23
2022-10-09T09:53:42.471Z,85.94
2022-10-09T09:54:42.659Z,85.43
2022-10-09T09:55:25.496Z,85.09
2022-10-09T09:56:26.062Z,84.99
2022-10-09T09:57:26.254Z,84.78
2022-10-09T09:58:26.442Z,84.54
2022-10-09T09:59:26.630Z,84.07
2022-10-09T10:00:27.012Z,83.97
2022-10-09T10:01:27.077Z,84.84
2022-10-09T10:02:27.283Z,83.08
2022-10-09T10:03:27.368Z,82.17
2022-10-09T10:04:27.555Z,83.93
2022-10-09T10:05:27.821Z,83.18
2022-10-09T10:06:27.936Z,83.12
2022-10-09T10:07:28.306Z,83.62
2022-10-09T10:08:28.313Z,83.12
2022-10-09T10:09:28.490Z,83.22
2022-10-09T10:10:28.674Z,84.38
2022-10-09T10:11:28.848Z,83.99
2022-10-09T10:12:29.083Z,82.84
2022-10-09T10:13:29.234Z,82.43
2022-10-09T10:14:29.415Z,81.72
2022-10-09T10:15:29.625Z,81.58
2022-10-09T10:16:29.914Z,80.97
2022-10-09T10:17:30.111Z,81.07
2022-10-09T10:18:30.241Z,81.48
2022-10-09T10:19:30.426Z,80.87
2022-10-09T10:20:30.662Z,81.24
2022-10-09T10:21:30.866Z,80.43
2022-10-09T10:22:31.083Z,80.57
2022-10-09T10:23:31.297Z,80.97
2022-10-09T10:24:31.488Z,81.18
2022-10-09T10:25:31.671Z,81.41
2022-10-09T10:26:31.862Z,81.38
2022-10-09T10:27:32.063Z,81.04
2022-10-09T10:28:32.309Z,80.53
2022-10-09T10:29:32.458Z,81.18
2022-10-09T10:30:32.817Z,81.31
2022-10-09T10:31:32.920Z,81.04
2022-10-09T10:32:33.159Z,80.46
2022-10-09T10:33:33.322Z,80.08
2022-10-09T10:34:33.529Z,78.83
2022-10-09T10:35:33.713Z,78.63
2022-10-09T10:36:33.940Z,76.70
2022-10-09T10:37:34.181Z,77.86
2022-10-09T10:38:34.321Z,77.25
2022-10-09T10:39:34.500Z,76.60
2022-10-09T10:40:34.700Z,76.94
2022-10-09T10:41:34.897Z,77.04
2022-10-09T10:42:35.107Z,76.29
2022-10-09T10:43:35.305Z,77.22
2022-10-09T10:44:35.487Z,77.62
2022-10-09T10:45:35.671Z,78.53
2022-10-09T10:46:35.913Z,78.53
2022-10-09T10:47:36.087Z,79.49
2022-10-09T10:48:36.286Z,80.12
2022-10-09T10:49:36.500Z,78.36
2022-10-09T10:50:36.693Z,77.07
2022-10-09T10:51:36.881Z,76.16
2022-10-09T10:52:37.125Z,75.76
2022-10-09T10:53:37.954Z,75.89
2022-10-09T10:54:37.487Z,74.51
2022-10-09T10:55:37.656Z,76.40
2022-10-09T10:56:37.849Z,75.15
2022-10-09T10:57:38.064Z,74.48
2022-10-09T10:58:38.271Z,75.38
2022-10-09T10:59:38.461Z,74.30
2022-10-09T11:00:38.731Z,74.95
2022-10-09T11:01:38.892Z,74.68
2022-10-09T11:02:41.227Z,73.73
2022-10-09T11:03:39.329Z,73.29
2022-10-09T11:04:39.491Z,74.74
2022-10-09T11:05:39.692Z,72.68
2022-10-09T11:06:39.900Z,72.44
2022-10-09T11:07:40.112Z,72.14
2022-10-09T11:08:40.344Z,71.97
2022-10-09T11:09:40.500Z,72.55
2022-10-09T11:10:40.689Z,71.26
2022-10-09T11:11:40.876Z,71.26
2022-10-09T11:12:48.072Z,71.37
2022-10-09T11:13:41.251Z,71.64
2022-10-09T11:14:41.448Z,71.50
2022-10-09T11:15:41.624Z,69.98
2022-10-09T11:16:41.848Z,70.29
2022-10-09T11:17:42.019Z,69.78
2022-10-09T11:18:42.208Z,69.98
2022-10-09T11:19:45.418Z,69.38
2022-10-09T11:20:42.597Z,69.24
2022-10-09T11:21:42.810Z,69.74
2022-10-09T11:22:44.019Z,70.25
2022-10-09T11:23:43.233Z,70.22
2022-10-09T11:24:43.454Z,70.42
2022-10-09T11:25:43.633Z,71.94
2022-10-09T11:26:43.797Z,70.76
2022-10-09T11:27:43.995Z,71.30
2022-10-09T11:28:44.245Z,70.59
2022-10-09T11:29:44.399Z,71.40
2022-10-09T11:30:44.587Z,70.66
2022-10-09T11:31:44.838Z,71.64
2022-10-09T11:32:45.010Z,72.68
2022-10-09T11:33:45.195Z,72.81
2022-10-09T11:34:45.401Z,71.84
2022-10-09T11:35:45.591Z,70.93
2022-10-09T11:36:45.771Z,71.70
2022-10-09T11:37:46.089Z,71.03
2022-10-09T11:38:46.150Z,73.36
2022-10-09T11:39:46.342Z,73.25
2022-10-09T11:40:46.551Z,71.53
2022-10-09T11:41:46.742Z,71.57
2022-10-09T11:42:46.968Z,70.32
2022-10-09T11:43:47.200Z,69.38
2022-10-09T11:44:47.415Z,68.67
2022-10-09T11:45:47.651Z,68.97
2022-10-09T11:46:47.791Z,69.34
2022-10-09T11:47:48.278Z,68.23
2022-10-09T11:48:48.194Z,68.37
2022-10-09T11:49:48.382Z,69.07
2022-10-09T11:50:48.561Z,68.87
2022-10-09T11:51:48.770Z,70.52
2022-10-09T11:52:48.983Z,70.18
2022-10-09T11:53:49.114Z,71.60
2022-10-09T11:54:49.336Z,71.26
2022-10-09T11:55:49.533Z,71.44
2022-10-09T11:56:49.715Z,70.69
2022-10-09T11:57:50.260Z,71.20
2022-10-09T11:58:50.088Z,70.69
2022-10-09T11:59:50.281Z,72.45
2022-10-09T12:00:50.712Z,72.58
2022-10-09T12:01:50.728Z,72.65
2022-10-09T12:02:50.896Z,71.77
2022-10-09T12:03:51.122Z,71.67
2022-10-09T12:04:55.424Z,70.32
2022-10-09T12:05:51.479Z,70.09
2022-10-09T12:06:51.666Z,69.34
2022-10-09T12:07:51.876Z,69.78
2022-10-09T12:08:52.081Z,70.73
2022-10-09T12:09:52.230Z,72.01
2022-10-09T12:10:52.447Z,71.73
2022-10-09T12:11:52.651Z,72.65
2022-10-09T12:12:52.900Z,72.58
2022-10-09T12:13:53.052Z,73.05
2022-10-09T12:14:53.237Z,71.60
2022-10-09T12:15:53.437Z,70.69
2022-10-09T12:16:53.745Z,70.02
2022-10-09T12:17:53.855Z,69.04
2022-10-09T12:18:54.045Z,68.80
2022-10-09T12:19:58.612Z,69.01
2022-10-09T12:20:54.481Z,68.54
2022-10-09T12:21:54.760Z,68.97
2022-10-09T12:23:14.360Z,69.10
2022-10-09T12:23:55.071Z,69.74
2022-10-09T12:24:55.276Z,70.32
2022-10-09T12:25:55.474Z,71.06
2022-10-09T12:26:55.669Z,71.80
2022-10-09T12:27:55.903Z,72.31
2022-10-09T12:28:56.105Z,71.53
2022-10-09T12:29:56.319Z,71.06
2022-10-09T12:30:56.602Z,69.07
2022-10-09T12:31:56.713Z,69.75
2022-10-09T12:32:56.927Z,67.43
2022-10-09T12:33:57.248Z,66.99
2022-10-09T12:34:57.351Z,67.29
2022-10-09T12:35:57.574Z,66.08
2022-10-09T12:36:57.722Z,67.09
2022-10-09T12:37:58.012Z,67.16
2022-10-09T12:38:58.198Z,66.32
2022-10-09T12:39:58.326Z,64.67
2022-10-09T12:40:58.540Z,65.78
2022-10-09T12:41:58.731Z,64.04
2022-10-09T12:42:58.941Z,64.97
2022-10-09T12:43:59.199Z,66.35
2022-10-09T12:44:59.316Z,67.79
2022-10-09T12:45:59.527Z,68.33
2022-10-09T12:46:59.660Z,68.63
2022-10-09T12:47:59.888Z,68.06
2022-10-09T12:49:00.066Z,67.83
2022-10-09T12:50:00.274Z,66.31
2022-10-09T12:51:00.477Z,66.89
2022-10-09T12:52:00.676Z,66.69
2022-10-09T12:53:00.909Z,65.34
2022-10-09T12:54:01.069Z,66.28
2022-10-09T12:55:01.247Z,65.70
2022-10-09T12:56:01.448Z,66.88